createdAt,value
2023-07-14T00:01:58.648Z,2.33
2023-07-14T00:04:31.090Z,2.40
2023-07-14T00:06:58.031Z,2.53
2023-07-14T00:09:27.153Z,2.00
2023-07-14T00:11:54.645Z,2.03
2023-07-14T00:14:21.775Z,2.35
2023-07-14T00:16:48.916Z,2.33
2023-07-14T00:19:18.020Z,2.10
2023-07-14T00:21:47.087Z,2.65
2023-07-14T00:24:16.266Z,2.58
2023-07-14T00:26:46.336Z,2.60
2023-07-14T00:29:22.004Z,2.63
2023-07-14T00:31:48.771Z,2.53
2023-07-14T00:34:15.529Z,2.22
2023-07-14T00:36:42.234Z,2.67
2023-07-14T00:39:08.992Z,2.10
2023-07-14T00:41:35.932Z,2.35
2023-07-14T00:44:03.026Z,2.17
2023-07-14T00:46:32.261Z,2.55
2023-07-14T00:49:06.483Z,2.30
2023-07-14T00:51:35.582Z,2.50
2023-07-14T00:54:02.418Z,2.33
2023-07-14T00:56:46.925Z,2.40
2023-07-14T00:59:16.402Z,2.10
2023-07-14T01:02:17.072Z,2.47
2023-07-14T01:05:00.466Z,2.72
2023-07-14T01:07:36.552Z,2.10
2023-07-14T01:10:04.425Z,2.85
2023-07-14T01:12:34.490Z,2.33
2023-07-14T01:15:04.000Z,2.47
2023-07-14T01:17:31.207Z,2.75
2023-07-14T01:20:02.438Z,2.60
2023-07-14T01:22:45.097Z,3.10
2023-07-14T01:25:39.020Z,2.70
2023-07-14T01:28:09.079Z,2.70
2023-07-14T01:30:37.581Z,2.50
2023-07-14T01:33:06.406Z,2.78
2023-07-14T01:35:37.253Z,2.95
2023-07-14T01:38:04.144Z,2.55
2023-07-14T01:40:34.013Z,2.75
2023-07-14T01:43:03.730Z,2.90
2023-07-14T01:45:37.198Z,3.28
2023-07-14T01:48:06.660Z,3.28
2023-07-14T01:50:36.926Z,3.10
2023-07-14T01:53:13.402Z,3.22
2023-07-14T01:55:43.170Z,3.30
2023-07-14T01:58:21.513Z,3.58
2023-07-14T02:00:52.264Z,3.58
2023-07-14T02:03:36.276Z,3.53
2023-07-14T02:06:03.945Z,3.15
2023-07-14T02:08:30.914Z,3.00
2023-07-14T02:10:57.724Z,3.58
2023-07-14T02:13:24.997Z,3.40
2023-07-14T02:15:53.222Z,3.75
2023-07-14T02:18:24.985Z,3.90
2023-07-14T02:20:53.129Z,3.58
2023-07-14T02:23:23.291Z,3.40
2023-07-14T02:26:05.216Z,3.67
2023-07-14T02:28:34.024Z,4.00
2023-07-14T02:31:23.029Z,3.97
2023-07-14T02:33:54.308Z,3.85
2023-07-14T02:36:31.106Z,3.92
2023-07-14T02:38:57.840Z,3.72
2023-07-14T02:41:29.169Z,3.92
2023-07-14T02:44:08.096Z,3.35
2023-07-14T02:47:15.462Z,3.88
2023-07-14T02:49:43.152Z,3.33
2023-07-14T02:52:09.855Z,4.00
2023-07-14T02:54:36.558Z,4.13
2023-07-14T02:57:04.464Z,3.67
2023-07-14T02:59:31.200Z,3.50
2023-07-14T03:01:57.971Z,3.85
2023-07-14T03:04:24.860Z,3.80
2023-07-14T03:06:51.651Z,3.60
2023-07-14T03:09:18.414Z,3.97
2023-07-14T03:11:45.177Z,3.85
2023-07-14T03:14:11.902Z,3.78
2023-07-14T03:16:39.822Z,4.05
2023-07-14T03:19:06.647Z,4.13
2023-07-14T03:21:33.331Z,4.22
2023-07-14T03:24:00.269Z,3.85
2023-07-14T03:26:27.304Z,4.38
2023-07-14T03:28:54.537Z,4.35
2023-07-14T03:31:21.330Z,4.28
2023-07-14T03:33:48.069Z,4.70
2023-07-14T03:36:14.897Z,4.53
2023-07-14T03:38:45.915Z,4.32
2023-07-14T03:41:15.367Z,4.63
2023-07-14T03:43:42.665Z,4.47
2023-07-14T03:46:09.497Z,3.88
2023-07-14T03:48:36.330Z,4.13
2023-07-14T03:51:04.126Z,4.38
2023-07-14T03:53:30.909Z,4.35
2023-07-14T03:55:58.429Z,4.55
2023-07-14T03:58:25.176Z,4.22
2023-07-14T04:00:51.875Z,4.28
2023-07-14T04:03:18.644Z,4.00
2023-07-14T04:05:46.797Z,4.00
2023-07-14T04:08:13.728Z,4.55
2023-07-14T04:10:40.475Z,4.50
2023-07-14T04:13:07.187Z,4.07
2023-07-14T04:15:33.898Z,4.60
2023-07-14T04:18:00.672Z,4.30
2023-07-14T04:20:27.397Z,4.32
2023-07-14T04:22:54.373Z,4.13
2023-07-14T04:25:21.227Z,4.53
2023-07-14T04:27:47.947Z,4.18
2023-07-14T04:30:14.771Z,4.40
2023-07-14T04:32:41.752Z,3.83
2023-07-14T04:35:08.896Z,3.80
2023-07-14T04:37:35.682Z,4.07
2023-07-14T04:40:02.492Z,4.57
2023-07-14T04:42:29.174Z,3.53
2023-07-14T04:44:55.939Z,4.38
2023-07-14T04:47:22.828Z,3.90
2023-07-14T04:49:49.647Z,3.70
2023-07-14T04:52:16.380Z,3.90
2023-07-14T04:54:43.233Z,4.47
2023-07-14T04:57:10.034Z,3.80
2023-07-14T04:59:36.929Z,4.15
2023-07-14T05:02:03.961Z,4.28
2023-07-14T05:04:30.750Z,4.22
2023-07-14T05:06:57.535Z,4.10
2023-07-14T05:09:25.514Z,4.15
2023-07-14T05:11:52.398Z,4.03
2023-07-14T05:14:19.097Z,3.95
2023-07-14T05:16:45.954Z,3.72
2023-07-14T05:19:12.744Z,3.97
2023-07-14T05:21:39.482Z,4.05
2023-07-14T05:24:06.339Z,3.38
2023-07-14T05:26:33.107Z,3.72
2023-07-14T05:28:59.860Z,3.80
2023-07-14T05:31:26.646Z,4.00
2023-07-14T05:33:53.441Z,4.57
2023-07-14T05:36:20.205Z,4.00
2023-07-14T05:38:47.030Z,4.43
2023-07-14T05:41:13.752Z,3.90
2023-07-14T05:43:40.504Z,3.78
2023-07-14T05:46:07.258Z,4.15
2023-07-14T05:48:34.005Z,3.67
2023-07-14T05:51:00.836Z,4.10
2023-07-14T05:53:27.586Z,4.10
2023-07-14T05:55:54.360Z,4.07
2023-07-14T05:58:21.062Z,4.22
2023-07-14T06:00:47.895Z,3.78
2023-07-14T06:03:17.200Z,4.00
2023-07-14T06:05:44.283Z,3.72
2023-07-14T06:08:11.069Z,3.53
2023-07-14T06:10:37.873Z,3.42
2023-07-14T06:13:04.860Z,3.47
2023-07-14T06:15:31.621Z,3.40
2023-07-14T06:17:58.439Z,3.45
2023-07-14T06:20:28.592Z,3.00
2023-07-14T06:22:56.884Z,3.13
2023-07-14T06:25:23.728Z,3.50
2023-07-14T06:27:50.525Z,3.58
2023-07-14T06:30:17.372Z,3.50
2023-07-14T06:32:44.281Z,3.85
2023-07-14T06:35:11.354Z,4.15
2023-07-14T06:37:38.298Z,4.20
2023-07-14T06:40:05.893Z,3.92
2023-07-14T06:42:32.875Z,3.80
2023-07-14T06:44:59.685Z,3.30
2023-07-14T06:47:26.483Z,3.38
2023-07-14T06:49:53.270Z,3.05
2023-07-14T06:52:20.076Z,3.25
2023-07-14T06:54:46.806Z,3.53
2023-07-14T06:57:13.598Z,3.10
2023-07-14T06:59:40.521Z,3.38
2023-07-14T07:02:10.543Z,3.65
2023-07-14T07:04:37.374Z,3.92
2023-07-14T07:07:05.273Z,3.67
2023-07-14T07:09:32.024Z,3.13
2023-07-14T07:11:58.818Z,3.35
2023-07-14T07:14:25.619Z,3.63
2023-07-14T07:16:52.518Z,3.58
2023-07-14T07:19:19.322Z,3.65
2023-07-14T07:21:46.093Z,3.38
2023-07-14T07:24:12.854Z,3.45
2023-07-14T07:26:41.778Z,3.70
2023-07-14T07:29:08.961Z,3.50
2023-07-14T07:31:35.963Z,3.30
2023-07-14T07:34:02.806Z,3.67
2023-07-14T07:36:29.680Z,3.45
2023-07-14T07:38:56.427Z,3.80
2023-07-14T07:41:25.843Z,3.33
2023-07-14T07:43:53.439Z,3.30
2023-07-14T07:46:20.339Z,2.80
2023-07-14T07:48:47.320Z,2.85
2023-07-14T07:51:15.757Z,2.42
2023-07-14T07:53:42.666Z,2.70
2023-07-14T07:56:10.380Z,2.72
2023-07-14T07:58:37.336Z,2.30
2023-07-14T08:01:06.107Z,2.97
2023-07-14T08:03:34.391Z,2.58
2023-07-14T08:06:06.780Z,2.90
2023-07-14T08:08:34.413Z,2.88
2023-07-14T08:11:01.732Z,2.47
2023-07-14T08:13:28.801Z,2.10
2023-07-14T08:15:56.756Z,2.47
2023-07-14T08:18:24.193Z,2.47
2023-07-14T08:20:51.102Z,2.22
2023-07-14T08:23:19.805Z,2.35
2023-07-14T08:25:55.684Z,2.40
2023-07-14T08:28:22.685Z,1.98
2023-07-14T08:30:50.632Z,2.70
2023-07-14T08:33:21.773Z,2.20
2023-07-14T08:35:52.985Z,2.53
2023-07-14T08:38:20.205Z,2.40
2023-07-14T08:41:14.745Z,2.50
2023-07-14T08:43:50.299Z,2.60
2023-07-14T08:46:31.552Z,2.20
2023-07-14T08:49:25.947Z,2.53
2023-07-14T08:52:02.846Z,2.75
2023-07-14T08:54:45.168Z,2.40
2023-07-14T08:57:17.576Z,2.05
2023-07-14T08:59:46.040Z,2.40
2023-07-14T09:02:38.566Z,2.63
2023-07-14T09:05:13.359Z,2.03
2023-07-14T09:07:43.072Z,2.63
2023-07-14T09:10:12.439Z,3.03
2023-07-14T09:12:48.730Z,2.58
2023-07-14T09:15:22.751Z,2.60
2023-07-14T09:18:24.537Z,2.25
2023-07-14T09:21:13.292Z,2.15
2023-07-14T09:23:58.446Z,2.20
2023-07-14T09:26:34.257Z,5.85
2023-07-14T09:29:11.463Z,2.30
2023-07-14T09:31:57.610Z,2.45
2023-07-14T09:37:09.342Z,2.63
2023-07-14T09:39:41.886Z,2.35
2023-07-14T09:42:35.549Z,2.55
2023-07-14T09:45:14.368Z,2.30
2023-07-14T09:47:45.765Z,1.83
2023-07-14T09:50:15.619Z,2.30
2023-07-14T09:52:57.260Z,2.05
2023-07-14T09:55:25.926Z,1.73
2023-07-14T09:58:09.813Z,2.40
2023-07-14T10:00:42.178Z,1.90
2023-07-14T10:03:12.686Z,1.77
2023-07-14T10:05:55.168Z,2.10
2023-07-14T10:08:43.526Z,2.22
2023-07-14T10:11:23.756Z,2.17
2023-07-14T10:14:05.301Z,2.08
2023-07-14T10:16:33.241Z,1.85
2023-07-14T10:19:06.570Z,1.80
2023-07-14T10:21:35.739Z,2.08
2023-07-14T10:24:04.589Z,1.92
2023-07-14T10:26:41.138Z,2.10
2023-07-14T10:29:18.759Z,2.13
2023-07-14T10:31:55.344Z,1.88
2023-07-14T10:34:43.374Z,1.90
2023-07-14T10:37:20.493Z,2.22
2023-07-14T10:39:50.931Z,1.88
2023-07-14T10:42:22.420Z,2.15
2023-07-14T10:44:50.346Z,2.10
2023-07-14T10:47:27.601Z,2.20
2023-07-14T10:50:04.483Z,2.40
2023-07-14T10:52:38.987Z,2.00
2023-07-14T10:55:06.023Z,2.60
2023-07-14T10:57:49.338Z,2.40
2023-07-14T11:00:41.522Z,2.08
2023-07-14T11:03:22.288Z,1.48
2023-07-14T11:05:59.296Z,2.13
2023-07-14T11:08:29.092Z,2.15
2023-07-14T11:11:22.867Z,2.10
2023-07-14T11:14:07.881Z,2.20
2023-07-14T11:16:47.533Z,2.25
2023-07-14T11:19:46.561Z,2.30
2023-07-14T11:22:36.214Z,2.47
2023-07-14T11:25:22.583Z,2.70
2023-07-14T11:27:49.245Z,2.03
2023-07-14T11:30:22.918Z,2.10
2023-07-14T11:33:27.992Z,2.28
2023-07-14T11:36:11.008Z,2.60
2023-07-14T11:38:54.559Z,2.45
2023-07-14T11:41:22.078Z,2.45
2023-07-14T11:43:49.765Z,2.50
2023-07-14T11:46:20.559Z,2.30
2023-07-14T11:49:03.405Z,2.30
2023-07-14T11:51:50.373Z,2.58
2023-07-14T11:54:24.841Z,2.20
2023-07-14T11:57:08.509Z,2.60
2023-07-14T11:59:35.943Z,2.63
2023-07-14T12:02:38.995Z,2.33
2023-07-14T12:05:14.899Z,2.28
2023-07-14T12:08:03.681Z,2.20
2023-07-14T12:10:39.415Z,2.53
2023-07-14T12:13:34.329Z,2.85
2023-07-14T12:16:01.171Z,4.00
2023-07-14T12:18:33.811Z,2.95
2023-07-14T12:21:57.729Z,2.25
2023-07-14T12:24:30.191Z,2.88
2023-07-14T12:27:19.044Z,2.45
2023-07-14T12:29:58.058Z,2.45
2023-07-14T12:32:25.471Z,3.10
2023-07-14T12:34:52.283Z,2.97
2023-07-14T12:37:20.663Z,2.65
2023-07-14T12:39:54.619Z,2.65
2023-07-14T12:42:22.559Z,3.45
2023-07-14T12:44:53.924Z,3.50
2023-07-14T12:47:21.647Z,2.47
2023-07-14T12:49:51.813Z,2.92
2023-07-14T12:52:24.726Z,2.97
2023-07-14T12:54:51.534Z,2.70
2023-07-14T12:57:19.495Z,2.92
2023-07-14T12:59:51.064Z,3.00
2023-07-14T13:02:18.558Z,2.95
2023-07-14T13:04:46.493Z,2.55
2023-07-14T13:07:15.317Z,2.50
2023-07-14T13:09:42.640Z,3.22
2023-07-14T13:12:14.901Z,2.83
2023-07-14T13:14:51.746Z,3.20
2023-07-14T13:17:26.301Z,3.22
2023-07-14T13:19:53.313Z,3.08
2023-07-14T13:22:28.868Z,2.97
2023-07-14T13:25:18.722Z,2.80
2023-07-14T13:27:45.816Z,3.33
2023-07-14T13:30:23.019Z,2.95
2023-07-14T13:32:54.212Z,3.10
2023-07-14T13:35:34.280Z,3.45
2023-07-14T13:38:07.289Z,3.05
2023-07-14T13:40:39.624Z,3.10
2023-07-14T13:43:16.686Z,3.20
2023-07-14T13:45:43.566Z,3.05
2023-07-14T13:48:30.928Z,3.35
2023-07-14T13:50:57.765Z,3.20
2023-07-14T13:53:24.531Z,3.00
2023-07-14T13:55:51.315Z,3.30
2023-07-14T13:58:18.139Z,3.05
2023-07-14T14:00:47.583Z,2.85
2023-07-14T14:03:15.762Z,2.90
2023-07-14T14:05:43.983Z,3.38
2023-07-14T14:08:14.112Z,2.97
2023-07-14T14:10:40.834Z,2.83
2023-07-14T14:13:07.667Z,2.65
2023-07-14T14:15:38.749Z,3.35
2023-07-14T14:18:11.716Z,3.50
2023-07-14T14:20:38.575Z,3.28
2023-07-14T14:23:05.380Z,3.58
2023-07-14T14:25:34.387Z,3.17
2023-07-14T14:28:01.494Z,3.60
2023-07-14T14:30:39.797Z,3.47
2023-07-14T14:33:12.985Z,4.57
2023-07-14T14:35:40.141Z,4.40
2023-07-14T14:38:42.523Z,3.15
2023-07-14T14:41:37.919Z,3.40
2023-07-14T14:44:22.627Z,2.85
2023-07-14T14:46:49.506Z,3.03
2023-07-14T14:49:17.133Z,4.05
2023-07-14T14:51:44.252Z,4.32
2023-07-14T14:54:11.095Z,3.35
2023-07-14T14:56:40.917Z,4.10
2023-07-14T14:59:23.031Z,3.60
2023-07-14T15:01:50.314Z,3.00
2023-07-14T15:04:20.061Z,2.92
2023-07-14T15:06:47.788Z,3.13
2023-07-14T15:09:15.973Z,2.53
2023-07-14T15:11:48.504Z,2.80
2023-07-14T15:14:35.307Z,2.72
2023-07-14T15:17:07.793Z,2.38
2023-07-14T15:19:35.071Z,2.95
2023-07-14T15:22:01.840Z,3.10
2023-07-14T15:24:28.590Z,2.53
2023-07-14T15:26:55.357Z,3.40
2023-07-14T15:29:22.616Z,2.92
2023-07-14T15:31:49.541Z,2.55
2023-07-14T15:34:18.384Z,2.65
2023-07-14T15:36:45.571Z,2.85
2023-07-14T15:39:14.752Z,2.80
2023-07-14T15:41:43.125Z,2.65
2023-07-14T15:44:20.329Z,3.10
2023-07-14T15:46:47.306Z,2.80
2023-07-14T15:49:18.282Z,2.72
2023-07-14T15:51:45.749Z,2.65
2023-07-14T15:54:29.444Z,2.30
2023-07-14T15:57:01.829Z,2.67
2023-07-14T15:59:30.265Z,3.08
2023-07-14T16:01:57.160Z,2.63
2023-07-14T16:04:24.417Z,2.90
2023-07-14T16:06:53.373Z,2.90
2023-07-14T16:09:28.739Z,3.03
2023-07-14T16:11:56.035Z,2.72
2023-07-14T16:14:22.808Z,2.90
2023-07-14T16:16:49.685Z,3.28
2023-07-14T16:19:16.445Z,2.83
2023-07-14T16:21:47.502Z,2.70
2023-07-14T16:24:21.452Z,3.28
2023-07-14T16:26:52.614Z,2.60
2023-07-14T16:29:20.804Z,2.88
2023-07-14T16:31:47.621Z,3.03
2023-07-14T16:34:14.351Z,2.65
2023-07-14T16:36:41.304Z,3.30
2023-07-14T16:39:18.157Z,3.42
2023-07-14T16:41:44.937Z,3.20
2023-07-14T16:44:16.424Z,2.88
2023-07-14T16:46:53.462Z,3.55
2023-07-14T16:49:20.277Z,2.97
2023-07-14T16:51:47.651Z,3.53
2023-07-14T16:54:25.620Z,3.05
2023-07-14T16:56:53.286Z,3.15
2023-07-14T16:59:20.447Z,3.30
2023-07-14T17:01:47.461Z,4.55
2023-07-14T17:04:22.360Z,4.38
2023-07-14T17:06:52.589Z,4.78
2023-07-14T17:09:22.166Z,3.60
2023-07-14T17:11:50.277Z,4.03
2023-07-14T17:14:21.428Z,3.40
2023-07-14T17:16:48.642Z,3.45
2023-07-14T17:19:17.939Z,3.92
2023-07-14T17:21:49.523Z,3.92
2023-07-14T17:24:18.030Z,4.22
2023-07-14T17:26:44.969Z,3.33
2023-07-14T17:29:20.883Z,3.55
2023-07-14T17:31:48.158Z,3.72
2023-07-14T17:34:15.053Z,3.42
2023-07-14T17:36:42.772Z,3.13
2023-07-14T17:39:25.444Z,3.85
2023-07-14T17:44:24.461Z,3.95
2023-07-14T17:46:52.262Z,4.30
2023-07-14T17:49:19.527Z,5.20
2023-07-14T17:51:51.762Z,5.22
2023-07-14T17:54:26.053Z,3.67
2023-07-14T17:56:54.235Z,4.40
2023-07-14T17:59:24.123Z,4.93
2023-07-14T18:01:50.860Z,5.10
2023-07-14T18:04:17.774Z,3.60
2023-07-14T18:06:44.604Z,4.68
2023-07-14T18:09:12.764Z,3.92
2023-07-14T18:11:42.414Z,3.95
2023-07-14T18:14:21.446Z,4.15
2023-07-14T18:16:49.550Z,3.95
2023-07-14T18:19:18.290Z,3.67
2023-07-14T18:21:54.240Z,3.88
2023-07-14T18:24:41.739Z,3.60
2023-07-14T18:27:15.629Z,3.30
2023-07-14T18:29:42.693Z,4.03
2023-07-14T18:32:11.337Z,4.13
2023-07-14T18:34:38.200Z,3.72
2023-07-14T18:37:12.643Z,4.95
2023-07-14T18:39:39.632Z,5.53
2023-07-14T18:42:11.813Z,6.47
2023-07-14T18:44:38.667Z,5.95
2023-07-14T18:47:05.902Z,5.22
2023-07-14T18:49:32.648Z,7.10
2023-07-14T18:51:59.390Z,5.20
2023-07-14T18:54:26.291Z,5.05
2023-07-14T18:56:53.200Z,5.38
2023-07-14T18:59:20.261Z,5.28
2023-07-14T19:01:48.748Z,4.95
2023-07-14T19:04:17.551Z,4.65
2023-07-14T19:06:45.661Z,3.80
2023-07-14T19:09:18.236Z,3.85
2023-07-14T19:11:57.144Z,3.92
2023-07-14T19:14:36.287Z,4.32
2023-07-14T19:17:03.367Z,6.53
2023-07-14T19:19:30.172Z,7.32
2023-07-14T19:21:57.167Z,6.88
2023-07-14T19:24:24.475Z,6.22
2023-07-14T19:26:51.623Z,6.32
2023-07-14T19:29:21.570Z,5.63
2023-07-14T19:31:48.337Z,5.72
2023-07-14T19:34:30.455Z,5.97
2023-07-14T19:36:58.077Z,8.88
2023-07-14T19:39:24.922Z,7.95
2023-07-14T19:41:53.596Z,6.97
2023-07-14T19:44:21.365Z,6.50
2023-07-14T19:46:49.776Z,5.90
2023-07-14T19:49:19.027Z,5.15
2023-07-14T19:51:52.134Z,5.10
2023-07-14T19:54:20.740Z,5.40
2023-07-14T19:56:48.237Z,7.40
2023-07-14T19:59:17.425Z,7.47
2023-07-14T20:01:48.932Z,7.85
2023-07-14T20:04:15.760Z,5.47
2023-07-14T20:06:42.534Z,5.82
2023-07-14T20:09:09.332Z,5.50
2023-07-14T20:11:37.556Z,5.65
2023-07-14T20:14:28.918Z,6.13
2023-07-14T20:16:55.835Z,6.40
2023-07-14T20:19:22.757Z,6.03
2023-07-14T20:21:49.532Z,6.15
2023-07-14T20:24:20.669Z,5.85
2023-07-14T20:26:47.754Z,6.32
2023-07-14T20:29:14.465Z,5.10
2023-07-14T20:31:43.120Z,5.25
2023-07-14T20:34:17.501Z,5.07
2023-07-14T20:36:45.721Z,5.50
2023-07-14T20:39:12.859Z,5.60
2023-07-14T20:41:40.866Z,5.20
2023-07-14T20:44:09.382Z,4.95
2023-07-14T20:46:38.360Z,5.38
2023-07-14T20:49:17.541Z,4.90
2023-07-14T20:51:46.793Z,4.60
2023-07-14T20:54:14.646Z,4.53
2023-07-14T20:56:41.651Z,4.63
2023-07-14T20:59:08.441Z,4.35
2023-07-14T21:01:36.140Z,4.82
2023-07-14T21:04:18.631Z,4.30
2023-07-14T21:06:45.443Z,4.72
2023-07-14T21:09:12.142Z,4.65
2023-07-14T21:11:39.285Z,4.53
2023-07-14T21:14:10.763Z,4.25
2023-07-14T21:16:37.934Z,4.40
2023-07-14T21:19:04.995Z,4.60
2023-07-14T21:21:34.551Z,4.40
2023-07-14T21:24:10.356Z,4.40
2023-07-14T21:26:37.176Z,4.07
2023-07-14T21:29:06.024Z,4.75
2023-07-14T21:31:35.202Z,4.15
2023-07-14T21:34:02.539Z,4.60
2023-07-14T21:36:29.603Z,4.20
2023-07-14T21:38:59.827Z,3.65
2023-07-14T21:41:26.690Z,4.43
2023-07-14T21:43:56.214Z,5.30
2023-07-14T21:46:23.097Z,4.32
2023-07-14T21:48:50.077Z,4.70
2023-07-14T21:51:25.418Z,4.30
2023-07-14T21:53:54.835Z,3.95
2023-07-14T21:56:22.834Z,4.43
2023-07-14T21:58:50.050Z,4.70
2023-07-14T22:01:26.634Z,3.95
2023-07-14T22:03:54.643Z,3.88
2023-07-14T22:06:22.529Z,3.72
2023-07-14T22:08:49.305Z,4.13
2023-07-14T22:11:17.853Z,4.10
2023-07-14T22:13:44.893Z,4.20
2023-07-14T22:16:16.565Z,4.15
2023-07-14T22:18:46.727Z,5.18
2023-07-14T22:21:26.607Z,4.95
2023-07-14T22:23:53.819Z,4.20
2023-07-14T22:26:23.037Z,3.83
2023-07-14T22:28:50.686Z,4.03
2023-07-14T22:31:22.400Z,4.57
2023-07-14T22:33:50.174Z,4.25
2023-07-14T22:36:18.578Z,4.97
2023-07-14T22:38:45.753Z,4.38
2023-07-14T22:41:35.225Z,4.50
2023-07-14T22:44:03.903Z,5.15
2023-07-14T22:46:32.164Z,4.57
2023-07-14T22:48:59.686Z,4.32
2023-07-14T22:51:28.325Z,4.07
2023-07-14T22:53:55.828Z,4.43
2023-07-14T22:56:23.442Z,4.18
2023-07-14T22:58:50.240Z,4.47
2023-07-14T23:01:21.441Z,4.00
2023-07-14T23:03:49.620Z,4.13
2023-07-14T23:06:19.099Z,4.18
2023-07-14T23:08:50.692Z,4.32
2023-07-14T23:11:23.317Z,4.68
2023-07-14T23:13:50.428Z,4.20
2023-07-14T23:16:20.404Z,4.32
2023-07-14T23:18:47.130Z,4.38
2023-07-14T23:21:29.382Z,4.20
2023-07-14T23:23:57.120Z,4.85
2023-07-14T23:26:27.277Z,4.10
2023-07-14T23:28:54.706Z,4.55
2023-07-14T23:31:30.876Z,4.10
2023-07-14T23:33:57.737Z,3.67
2023-07-14T23:36:25.709Z,4.13
2023-07-14T23:38:53.016Z,4.13
2023-07-14T23:41:28.597Z,4.28
2023-07-14T23:46:24.508Z,4.00
2023-07-14T23:48:52.563Z,4.20
2023-07-14T23:51:32.137Z,4.07
2023-07-14T23:53:59.295Z,4.10
2023-07-14T23:56:26.544Z,4.00
2023-07-14T23:58:53.281Z,4.15
